createdAt,value
2023-05-14T00:00:11.011Z,99.90
2023-05-14T00:02:39.776Z,99.90
2023-05-14T00:05:09.127Z,99.90
2023-05-14T00:07:37.644Z,99.90
2023-05-14T00:10:08.548Z,99.90
2023-05-14T00:12:37.089Z,99.90
2023-05-14T00:15:06.114Z,99.90
2023-05-14T00:17:39.100Z,99.90
2023-05-14T00:20:08.241Z,99.90
2023-05-14T00:22:37.339Z,99.90
2023-05-14T00:25:09.100Z,99.90
2023-05-14T00:27:38.822Z,99.90
2023-05-14T00:30:08.210Z,99.90
2023-05-14T00:32:36.995Z,99.90
2023-05-14T00:35:05.952Z,99.90
2023-05-14T00:37:34.390Z,99.90
2023-05-14T00:40:03.843Z,99.90
2023-05-14T00:42:34.748Z,99.90
2023-05-14T00:45:03.206Z,99.90
2023-05-14T00:47:31.682Z,99.90
2023-05-14T00:50:00.294Z,99.90
2023-05-14T00:52:29.032Z,99.90
2023-05-14T00:54:58.293Z,99.90
2023-05-14T00:57:26.814Z,99.90
2023-05-14T00:59:56.913Z,99.90
2023-05-14T01:02:25.686Z,99.90
2023-05-14T01:04:54.754Z,99.90
2023-05-14T01:07:31.857Z,99.90
2023-05-14T01:10:04.471Z,99.90
2023-05-14T01:12:49.333Z,99.90
2023-05-14T01:15:23.201Z,99.90
2023-05-14T01:17:55.817Z,99.90
2023-05-14T01:20:25.620Z,99.90
2023-05-14T01:22:55.709Z,99.90
2023-05-14T01:25:24.210Z,99.90
2023-05-14T01:28:00.980Z,99.90
2023-05-14T01:30:33.251Z,99.90
2023-05-14T01:33:06.467Z,99.90
2023-05-14T01:35:35.375Z,99.90
2023-05-14T01:38:08.678Z,99.90
2023-05-14T01:40:38.275Z,99.90
2023-05-14T01:43:07.486Z,99.90
2023-05-14T01:45:37.913Z,99.90
2023-05-14T01:48:06.962Z,99.90
2023-05-14T01:50:35.679Z,99.90
2023-05-14T01:53:05.808Z,99.90
2023-05-14T01:55:34.306Z,99.90
2023-05-14T01:58:02.792Z,99.90
2023-05-14T02:00:31.317Z,99.90
2023-05-14T02:02:59.978Z,99.90
2023-05-14T02:05:28.544Z,99.90
2023-05-14T02:07:57.074Z,99.90
2023-05-14T02:10:26.956Z,99.90
2023-05-14T02:12:55.611Z,99.90
2023-05-14T02:15:24.426Z,99.90
2023-05-14T02:17:52.991Z,99.90
2023-05-14T02:20:21.748Z,99.90
2023-05-14T02:22:50.459Z,99.90
2023-05-14T02:25:19.179Z,99.90
2023-05-14T02:27:49.641Z,99.90
2023-05-14T02:30:18.412Z,99.90
2023-05-14T02:32:47.193Z,99.90
2023-05-14T02:35:15.776Z,99.90
2023-05-14T02:37:44.771Z,99.90
2023-05-14T02:40:13.591Z,99.90
2023-05-14T02:42:42.579Z,99.90
2023-05-14T02:45:12.879Z,99.90
2023-05-14T02:47:41.341Z,99.90
2023-05-14T02:50:11.351Z,99.90
2023-05-14T02:52:39.963Z,99.90
2023-05-14T02:55:09.126Z,99.90
2023-05-14T02:57:37.552Z,99.90
2023-05-14T03:00:07.323Z,99.90
2023-05-14T03:02:37.684Z,99.90
2023-05-14T03:05:07.224Z,99.90
2023-05-14T03:07:35.755Z,99.90
2023-05-14T03:10:04.323Z,99.90
2023-05-14T03:12:32.867Z,99.90
2023-05-14T03:15:01.354Z,99.90
2023-05-14T03:17:29.848Z,99.90
2023-05-14T03:19:59.755Z,99.90
2023-05-14T03:22:28.748Z,99.90
2023-05-14T03:24:57.228Z,99.90
2023-05-14T03:27:25.770Z,99.90
2023-05-14T03:29:54.384Z,99.90
2023-05-14T03:32:22.957Z,99.90
2023-05-14T03:34:51.438Z,99.90
2023-05-14T03:37:21.423Z,99.90
2023-05-14T03:39:49.832Z,99.90
2023-05-14T03:42:18.309Z,99.90
2023-05-14T03:44:47.014Z,99.90
2023-05-14T03:47:15.498Z,99.90
2023-05-14T03:49:44.083Z,99.90
2023-05-14T03:52:12.554Z,99.90
2023-05-14T03:54:42.481Z,99.90
2023-05-14T03:57:10.945Z,99.90
2023-05-14T03:59:39.491Z,99.90
2023-05-14T04:02:08.412Z,99.90
2023-05-14T04:04:37.017Z,99.90
2023-05-14T04:07:06.018Z,99.90
2023-05-14T04:09:34.584Z,99.90
2023-05-14T04:12:04.600Z,99.90
2023-05-14T04:14:33.182Z,99.90
2023-05-14T04:17:01.725Z,99.90
2023-05-14T04:19:30.214Z,99.90
2023-05-14T04:21:58.724Z,99.90
2023-05-14T04:24:27.633Z,99.90
2023-05-14T04:26:56.062Z,99.90
2023-05-14T04:29:26.179Z,99.90
2023-05-14T04:31:54.931Z,99.90
2023-05-14T04:34:23.508Z,99.90
2023-05-14T04:36:52.426Z,99.90
2023-05-14T04:39:20.923Z,99.90
2023-05-14T04:41:49.362Z,99.90
2023-05-14T04:44:18.030Z,99.90
2023-05-14T04:46:47.945Z,99.90
2023-05-14T04:49:16.406Z,99.90
2023-05-14T04:51:46.069Z,99.90
2023-05-14T04:54:14.616Z,99.90
2023-05-14T04:56:43.649Z,99.90
2023-05-14T04:59:12.196Z,99.90
2023-05-14T05:01:40.793Z,99.90
2023-05-14T05:04:10.874Z,99.90
2023-05-14T05:06:39.408Z,99.90
2023-05-14T05:09:08.839Z,99.90
2023-05-14T05:11:37.990Z,99.90
2023-05-14T05:14:06.483Z,99.90
2023-05-14T05:16:35.041Z,99.90
2023-05-14T05:19:03.766Z,99.90
2023-05-14T05:21:33.834Z,99.90
2023-05-14T05:24:02.312Z,99.90
2023-05-14T05:26:31.844Z,99.90
2023-05-14T05:29:00.475Z,99.90
2023-05-14T05:31:29.556Z,99.90
2023-05-14T05:33:58.599Z,99.90
2023-05-14T05:36:27.697Z,99.90
2023-05-14T05:38:57.654Z,99.90
2023-05-14T05:41:26.712Z,99.90
2023-05-14T05:43:55.261Z,99.90
2023-05-14T05:46:23.755Z,99.90
2023-05-14T05:48:53.385Z,99.90
2023-05-14T05:51:21.911Z,99.90
2023-05-14T05:53:50.402Z,99.90
2023-05-14T05:56:20.311Z,99.90
2023-05-14T05:58:48.836Z,99.90
2023-05-14T06:01:17.266Z,99.90
2023-05-14T06:03:47.723Z,99.90
2023-05-14T06:06:17.171Z,99.90
2023-05-14T06:08:45.823Z,99.90
2023-05-14T06:11:14.334Z,99.90
2023-05-14T06:13:44.789Z,99.90
2023-05-14T06:16:13.277Z,99.90
2023-05-14T06:18:41.792Z,99.90
2023-05-14T06:21:10.794Z,99.90
2023-05-14T06:23:39.313Z,99.90
2023-05-14T06:26:07.993Z,99.90
2023-05-14T06:28:36.487Z,99.90
2023-05-14T06:31:06.493Z,99.90
2023-05-14T06:33:35.158Z,99.90
2023-05-14T06:36:08.421Z,99.90
2023-05-14T06:38:36.965Z,99.90
2023-05-14T06:41:05.639Z,99.90
2023-05-14T06:43:34.225Z,99.90
2023-05-14T06:46:02.752Z,99.90
2023-05-14T06:48:32.901Z,99.90
2023-05-14T06:51:03.221Z,99.90
2023-05-14T06:53:31.840Z,99.90
2023-05-14T06:56:00.298Z,99.90
2023-05-14T06:58:28.825Z,99.90
2023-05-14T07:00:59.916Z,99.90
2023-05-14T07:03:29.314Z,99.90
2023-05-14T07:05:59.252Z,99.90
2023-05-14T07:08:27.628Z,99.90
2023-05-14T07:10:57.482Z,99.90
2023-05-14T07:13:28.461Z,99.90
2023-05-14T07:15:57.306Z,99.90
2023-05-14T07:18:25.947Z,99.90
2023-05-14T07:20:54.467Z,99.90
2023-05-14T07:23:24.415Z,99.90
2023-05-14T07:25:52.900Z,99.90
2023-05-14T07:28:21.380Z,99.90
2023-05-14T07:30:49.946Z,99.90
2023-05-14T07:33:18.387Z,99.90
2023-05-14T07:35:46.961Z,99.90
2023-05-14T07:38:16.026Z,99.90
2023-05-14T07:40:46.100Z,99.90
2023-05-14T07:43:15.408Z,99.90
2023-05-14T07:45:44.272Z,99.90
2023-05-14T07:48:12.807Z,99.90
2023-05-14T07:50:41.301Z,99.90
2023-05-14T07:53:09.826Z,99.90
2023-05-14T07:55:38.678Z,99.90
2023-05-14T07:58:08.533Z,99.90
2023-05-14T08:00:37.350Z,99.90
2023-05-14T08:03:06.351Z,99.90
2023-05-14T08:05:35.440Z,99.90
2023-05-14T08:08:04.001Z,99.90
2023-05-14T08:10:32.694Z,99.90
2023-05-14T08:13:01.311Z,99.90
2023-05-14T08:15:31.345Z,99.90
2023-05-14T08:18:03.679Z,99.90
2023-05-14T08:20:32.478Z,99.90
2023-05-14T08:23:01.692Z,99.90
2023-05-14T08:25:30.198Z,87.50
2023-05-14T08:27:59.956Z,88.90
2023-05-14T08:30:28.651Z,99.90
2023-05-14T08:32:59.706Z,73.30
2023-05-14T08:35:28.187Z,52.40
2023-05-14T08:37:57.106Z,54.40
2023-05-14T08:40:26.224Z,56.00
2023-05-14T08:42:55.546Z,56.40
2023-05-14T08:45:30.164Z,55.40
2023-05-14T08:48:01.386Z,55.40
2023-05-14T08:50:31.593Z,63.00
2023-05-14T08:53:00.134Z,60.70
2023-05-14T08:55:29.392Z,42.80
2023-05-14T08:57:58.059Z,41.30
2023-05-14T09:00:27.120Z,56.80
2023-05-14T09:02:56.498Z,51.40
2023-05-14T09:05:26.701Z,58.70
2023-05-14T09:07:55.260Z,38.90
2023-05-14T09:10:23.985Z,35.70
2023-05-14T09:12:52.905Z,36.70
2023-05-14T09:15:21.460Z,35.70
2023-05-14T09:17:51.002Z,36.90
2023-05-14T09:20:21.212Z,31.90
2023-05-14T09:22:54.721Z,36.10
2023-05-14T09:25:28.773Z,37.90
2023-05-14T09:27:59.061Z,31.10
2023-05-14T09:30:28.084Z,33.10
2023-05-14T09:32:57.373Z,30.80
2023-05-14T09:35:26.801Z,30.70
2023-05-14T09:37:57.367Z,32.00
2023-05-14T09:40:33.225Z,31.20
2023-05-14T09:43:02.314Z,32.90
2023-05-14T09:45:31.937Z,31.20
2023-05-14T09:48:03.063Z,32.80
2023-05-14T09:50:32.038Z,28.20
2023-05-14T09:53:04.002Z,29.80
2023-05-14T09:55:33.496Z,29.70
2023-05-14T09:58:03.291Z,29.80
2023-05-14T10:00:33.066Z,31.50
2023-05-14T10:03:07.282Z,27.50
2023-05-14T10:05:37.627Z,31.30
2023-05-14T10:08:11.402Z,28.30
2023-05-14T10:10:40.404Z,27.60
2023-05-14T10:13:14.756Z,29.30
2023-05-14T10:15:49.569Z,28.40
2023-05-14T10:18:21.594Z,29.80
2023-05-14T10:20:58.553Z,30.00
2023-05-14T10:23:28.891Z,35.40
2023-05-14T10:25:58.093Z,32.40
2023-05-14T10:28:27.374Z,31.90
2023-05-14T10:30:56.772Z,34.90
2023-05-14T10:33:25.382Z,35.60
2023-05-14T10:36:02.659Z,36.60
2023-05-14T10:38:35.528Z,40.50
2023-05-14T10:41:06.580Z,48.20
2023-05-14T10:43:38.770Z,51.90
2023-05-14T10:46:08.747Z,41.40
2023-05-14T10:48:39.098Z,53.30
2023-05-14T10:51:10.416Z,39.70
2023-05-14T10:53:43.132Z,46.10
2023-05-14T10:56:13.348Z,35.70
2023-05-14T10:58:44.221Z,41.20
2023-05-14T11:01:14.761Z,52.50
2023-05-14T11:03:45.241Z,35.00
2023-05-14T11:06:15.440Z,35.60
2023-05-14T11:08:46.697Z,39.50
2023-05-14T11:11:15.486Z,50.10
2023-05-14T11:13:45.205Z,39.70
2023-05-14T11:16:23.481Z,47.60
2023-05-14T11:19:02.098Z,38.70
2023-05-14T11:21:32.003Z,31.80
2023-05-14T11:24:05.151Z,29.20
2023-05-14T11:26:34.470Z,32.90
2023-05-14T11:29:03.147Z,28.00
2023-05-14T11:31:31.931Z,32.20
2023-05-14T11:34:01.155Z,28.50
2023-05-14T11:36:29.688Z,29.10
2023-05-14T11:38:58.267Z,25.70
2023-05-14T11:41:28.410Z,26.80
2023-05-14T11:43:57.105Z,25.70
2023-05-14T11:46:26.358Z,23.60
2023-05-14T11:48:55.004Z,30.20
2023-05-14T11:51:24.742Z,29.60
2023-05-14T11:53:53.211Z,25.30
2023-05-14T11:56:23.646Z,26.10
2023-05-14T11:58:58.287Z,28.70
2023-05-14T12:01:28.863Z,29.30
2023-05-14T12:03:57.509Z,32.90
2023-05-14T12:06:32.623Z,27.70
2023-05-14T12:09:01.763Z,27.90
2023-05-14T12:11:33.066Z,27.40
2023-05-14T12:14:03.235Z,24.20
2023-05-14T12:16:33.834Z,25.20
2023-05-14T12:19:03.672Z,25.20
2023-05-14T12:21:32.690Z,22.20
2023-05-14T12:24:02.490Z,25.10
2023-05-14T12:26:34.652Z,24.00
2023-05-14T12:29:05.162Z,25.00
2023-05-14T12:31:35.289Z,24.50
2023-05-14T12:34:04.805Z,25.90
2023-05-14T12:36:33.541Z,23.20
2023-05-14T12:39:04.177Z,23.20
2023-05-14T12:41:32.938Z,24.50
2023-05-14T12:44:02.136Z,25.30
2023-05-14T12:46:32.359Z,24.20
2023-05-14T12:49:01.115Z,23.50
2023-05-14T12:51:30.056Z,24.20
2023-05-14T12:53:58.660Z,26.60
2023-05-14T12:56:28.620Z,24.30
2023-05-14T12:58:57.662Z,26.40
2023-05-14T13:01:26.658Z,25.50
2023-05-14T13:03:56.712Z,25.30
2023-05-14T13:06:25.372Z,24.60
2023-05-14T13:08:53.948Z,25.70
2023-05-14T13:11:22.888Z,26.50
2023-05-14T13:13:51.687Z,27.20
2023-05-14T13:16:20.283Z,26.00
2023-05-14T13:18:48.861Z,25.20
2023-05-14T13:21:18.925Z,28.60
2023-05-14T13:23:47.500Z,27.30
2023-05-14T13:26:16.730Z,28.20
2023-05-14T13:28:45.940Z,28.10
2023-05-14T13:31:15.855Z,25.80
2023-05-14T13:33:46.033Z,29.70
2023-05-14T13:36:16.310Z,32.30
2023-05-14T13:38:47.126Z,30.40
2023-05-14T13:41:15.691Z,32.20
2023-05-14T13:43:44.484Z,30.50
2023-05-14T13:46:14.022Z,31.80
2023-05-14T13:48:42.988Z,30.50
2023-05-14T13:51:11.643Z,24.90
2023-05-14T13:53:40.206Z,27.30
2023-05-14T13:56:10.277Z,29.80
2023-05-14T13:58:38.844Z,34.80
2023-05-14T14:01:07.934Z,35.50
2023-05-14T14:03:36.548Z,30.60
2023-05-14T14:06:05.577Z,29.90
2023-05-14T14:08:34.112Z,30.60
2023-05-14T14:11:02.723Z,30.50
2023-05-14T14:13:32.686Z,31.10
2023-05-14T14:16:03.258Z,29.10
2023-05-14T14:18:31.968Z,29.80
2023-05-14T14:21:00.640Z,31.40
2023-05-14T14:23:29.267Z,30.60
2023-05-14T14:25:58.745Z,41.30
2023-05-14T14:28:27.324Z,36.00
2023-05-14T14:30:58.247Z,36.30
2023-05-14T14:33:27.243Z,33.30
2023-05-14T14:35:56.323Z,37.20
2023-05-14T14:38:24.914Z,28.60
2023-05-14T14:40:53.470Z,34.80
2023-05-14T14:43:22.049Z,39.40
2023-05-14T14:45:50.640Z,34.10
2023-05-14T14:48:28.929Z,34.90
2023-05-14T14:50:57.532Z,33.60
2023-05-14T14:53:26.445Z,34.90
2023-05-14T14:55:55.276Z,35.80
2023-05-14T14:58:24.161Z,40.20
2023-05-14T15:00:54.277Z,33.50
2023-05-14T15:03:23.452Z,35.60
2023-05-14T15:05:55.311Z,36.60
2023-05-14T15:08:28.041Z,31.80
2023-05-14T15:10:57.241Z,32.00
2023-05-14T15:13:27.117Z,40.50
2023-05-14T15:15:55.756Z,41.40
2023-05-14T15:18:24.334Z,38.90
2023-05-14T15:20:54.277Z,41.50
2023-05-14T15:23:22.919Z,39.30
2023-05-14T15:25:51.489Z,37.00
2023-05-14T15:28:20.095Z,37.50
2023-05-14T15:30:49.438Z,38.90
2023-05-14T15:33:19.620Z,35.80
2023-05-14T15:35:48.403Z,37.30
2023-05-14T15:38:18.710Z,34.80
2023-05-14T15:40:47.436Z,37.90
2023-05-14T15:43:16.036Z,42.00
2023-05-14T15:45:46.631Z,41.70
2023-05-14T15:48:15.240Z,39.70
2023-05-14T15:50:44.238Z,43.10
2023-05-14T15:53:13.045Z,38.80
2023-05-14T15:55:43.140Z,38.20
2023-05-14T15:58:12.934Z,35.20
2023-05-14T16:00:41.547Z,44.50
2023-05-14T16:03:10.183Z,41.00
2023-05-14T16:05:38.834Z,39.60
2023-05-14T16:08:07.936Z,44.30
2023-05-14T16:10:36.504Z,42.00
2023-05-14T16:13:06.732Z,43.90
2023-05-14T16:15:35.407Z,41.00
2023-05-14T16:18:04.102Z,40.00
2023-05-14T16:20:32.753Z,37.70
2023-05-14T16:23:02.307Z,57.50
2023-05-14T16:25:31.726Z,44.30
2023-05-14T16:28:00.311Z,47.30
2023-05-14T16:30:30.305Z,48.90
2023-05-14T16:32:58.855Z,43.50
2023-05-14T16:35:27.734Z,75.40
2023-05-14T16:37:57.005Z,49.60
2023-05-14T16:40:25.823Z,62.50
2023-05-14T16:42:54.455Z,56.50
2023-05-14T16:45:23.306Z,50.10
2023-05-14T16:47:53.448Z,48.60
2023-05-14T16:50:22.382Z,53.20
2023-05-14T16:52:50.943Z,56.90
2023-05-14T16:55:20.815Z,54.60
2023-05-14T16:57:49.362Z,56.40
2023-05-14T17:00:20.214Z,62.20
2023-05-14T17:02:49.956Z,79.80
2023-05-14T17:05:19.969Z,71.60
2023-05-14T17:07:48.577Z,97.40
2023-05-14T17:10:17.254Z,87.70
2023-05-14T17:12:46.653Z,90.20
2023-05-14T17:15:15.180Z,99.90
2023-05-14T17:17:45.627Z,99.90
2023-05-14T17:20:16.782Z,99.90
2023-05-14T17:22:47.927Z,99.90
2023-05-14T17:25:18.092Z,93.80
2023-05-14T17:27:46.915Z,99.90
2023-05-14T17:30:15.891Z,99.90
2023-05-14T17:32:44.818Z,99.90
2023-05-14T17:35:13.567Z,99.90
2023-05-14T17:37:43.469Z,99.90
2023-05-14T17:40:14.597Z,99.90
2023-05-14T17:42:46.004Z,99.90
2023-05-14T17:45:15.764Z,99.90
2023-05-14T17:47:44.895Z,99.90
2023-05-14T17:50:13.496Z,99.90
2023-05-14T17:52:44.535Z,99.90
2023-05-14T17:55:14.751Z,99.90
2023-05-14T17:57:44.219Z,99.90
2023-05-14T18:00:14.161Z,99.90
2023-05-14T18:02:43.395Z,99.90
2023-05-14T18:05:12.736Z,99.90
2023-05-14T18:07:42.060Z,99.90
2023-05-14T18:10:11.234Z,99.90
2023-05-14T18:12:41.830Z,99.90
2023-05-14T18:15:11.254Z,99.90
2023-05-14T18:17:40.181Z,99.90
2023-05-14T18:20:10.408Z,99.90
2023-05-14T18:22:39.154Z,99.90
2023-05-14T18:25:09.723Z,99.90
2023-05-14T18:27:44.697Z,99.90
2023-05-14T18:30:16.811Z,99.90
2023-05-14T18:32:46.951Z,99.90
2023-05-14T18:35:15.610Z,99.90
2023-05-14T18:37:44.915Z,99.90
2023-05-14T18:40:16.898Z,99.90
2023-05-14T18:42:47.415Z,99.90
2023-05-14T18:45:18.620Z,99.90
2023-05-14T18:47:48.273Z,99.90
2023-05-14T18:50:16.894Z,99.90
2023-05-14T18:52:47.504Z,99.90
2023-05-14T18:55:16.903Z,99.90
2023-05-14T18:57:46.349Z,99.90
2023-05-14T19:00:18.007Z,99.90
2023-05-14T19:02:47.136Z,99.90
2023-05-14T19:05:16.154Z,99.90
2023-05-14T19:07:48.157Z,99.90
2023-05-14T19:10:16.956Z,99.90
2023-05-14T19:12:45.969Z,99.90
2023-05-14T19:15:15.253Z,99.90
2023-05-14T19:17:46.058Z,99.90
2023-05-14T19:20:15.013Z,99.90
2023-05-14T19:22:44.204Z,99.90
2023-05-14T19:25:13.015Z,99.90
2023-05-14T19:27:42.586Z,99.90
2023-05-14T19:30:12.867Z,99.90
2023-05-14T19:32:41.525Z,99.90
2023-05-14T19:35:12.394Z,99.90
2023-05-14T19:37:41.380Z,99.90
2023-05-14T19:40:10.996Z,99.90
2023-05-14T19:42:39.731Z,99.90
2023-05-14T19:45:10.386Z,99.90
2023-05-14T19:47:39.268Z,99.90
2023-05-14T19:50:09.640Z,99.90
2023-05-14T19:52:39.675Z,99.90
2023-05-14T19:55:08.918Z,99.90
2023-05-14T19:57:39.165Z,99.90
2023-05-14T20:00:10.664Z,99.90
2023-05-14T20:02:40.808Z,99.90
2023-05-14T20:05:10.772Z,99.90
2023-05-14T20:07:41.244Z,99.90
2023-05-14T20:10:11.091Z,99.90
2023-05-14T20:12:39.806Z,99.90
2023-05-14T20:15:09.950Z,99.90
2023-05-14T20:17:40.032Z,99.90
2023-05-14T20:20:10.160Z,99.90
2023-05-14T20:22:40.365Z,99.90
2023-05-14T20:25:10.240Z,99.90
2023-05-14T20:27:38.978Z,99.90
2023-05-14T20:30:08.932Z,99.90
2023-05-14T20:32:38.522Z,99.90
2023-05-14T20:35:08.315Z,99.90
2023-05-14T20:37:37.834Z,99.90
2023-05-14T20:40:12.581Z,99.90
2023-05-14T20:42:41.548Z,99.90
2023-05-14T20:45:11.225Z,99.90
2023-05-14T20:47:40.082Z,99.90
2023-05-14T20:50:10.019Z,99.90
2023-05-14T20:52:38.611Z,99.90
2023-05-14T20:55:10.049Z,99.90
2023-05-14T20:57:38.668Z,99.90
2023-05-14T21:00:09.021Z,99.90
2023-05-14T21:02:37.929Z,99.90
2023-05-14T21:05:07.706Z,99.90
2023-05-14T21:07:36.651Z,99.90
2023-05-14T21:10:05.312Z,99.90
2023-05-14T21:12:35.287Z,99.90
2023-05-14T21:15:03.891Z,99.90
2023-05-14T21:17:32.714Z,99.90
2023-05-14T21:20:01.299Z,99.90
2023-05-14T21:22:29.860Z,99.90
2023-05-14T21:24:58.446Z,99.90
2023-05-14T21:27:27.509Z,99.90
2023-05-14T21:29:57.450Z,99.90
2023-05-14T21:32:26.103Z,99.90
2023-05-14T21:34:54.716Z,99.90
2023-05-14T21:37:23.441Z,99.90
2023-05-14T21:39:52.328Z,99.90
2023-05-14T21:42:21.229Z,99.90
2023-05-14T21:44:49.866Z,99.90
2023-05-14T21:47:20.072Z,99.90
2023-05-14T21:49:48.610Z,99.90
2023-05-14T21:52:17.127Z,99.90
2023-05-14T21:54:46.126Z,99.90
2023-05-14T21:57:14.668Z,99.90
2023-05-14T21:59:43.370Z,99.90
2023-05-14T22:02:12.120Z,99.90
2023-05-14T22:04:42.207Z,99.90
2023-05-14T22:07:10.767Z,99.90
2023-05-14T22:09:39.349Z,99.90
2023-05-14T22:12:08.848Z,99.90
2023-05-14T22:14:37.434Z,99.90
2023-05-14T22:17:06.306Z,99.90
2023-05-14T22:19:34.867Z,99.90
2023-05-14T22:22:05.028Z,99.90
2023-05-14T22:24:33.607Z,99.90
2023-05-14T22:27:02.145Z,99.90
2023-05-14T22:29:30.831Z,99.90
2023-05-14T22:31:59.443Z,99.90
2023-05-14T22:34:27.985Z,99.90
2023-05-14T22:36:56.545Z,99.90
2023-05-14T22:39:26.625Z,99.90
2023-05-14T22:41:55.305Z,99.90
2023-05-14T22:44:24.124Z,99.90
2023-05-14T22:46:52.898Z,99.90
2023-05-14T22:49:21.529Z,99.90
2023-05-14T22:51:54.303Z,99.90
2023-05-14T22:54:23.027Z,99.90
2023-05-14T22:56:53.173Z,99.90
2023-05-14T22:59:23.562Z,99.90
2023-05-14T23:01:52.568Z,99.90
2023-05-14T23:04:21.237Z,99.90
2023-05-14T23:06:49.965Z,99.90
2023-05-14T23:09:19.111Z,99.90
2023-05-14T23:11:47.666Z,99.90
2023-05-14T23:14:18.087Z,99.90
2023-05-14T23:16:47.019Z,99.90
2023-05-14T23:19:15.645Z,99.90
2023-05-14T23:21:44.787Z,99.90
2023-05-14T23:24:13.472Z,99.90
2023-05-14T23:26:42.011Z,99.90
2023-05-14T23:29:10.709Z,99.90
2023-05-14T23:31:41.246Z,99.90
2023-05-14T23:34:09.837Z,99.90
2023-05-14T23:36:39.864Z,99.90
2023-05-14T23:39:08.490Z,99.90
2023-05-14T23:41:36.984Z,99.90
2023-05-14T23:44:06.072Z,99.90
2023-05-14T23:46:34.667Z,99.90
2023-05-14T23:49:04.690Z,99.90
2023-05-14T23:51:33.321Z,99.90
2023-05-14T23:54:01.943Z,99.90
2023-05-14T23:56:30.651Z,99.90
2023-05-14T23:58:59.304Z,99.90
